createdAt,value
2023-02-15T00:02:00.816Z,1.90
2023-02-15T00:04:27.791Z,1.90
2023-02-15T00:06:54.914Z,1.90
2023-02-15T00:09:21.664Z,1.90
2023-02-15T00:11:48.389Z,1.80
2023-02-15T00:14:18.505Z,1.90
2023-02-15T00:16:45.742Z,1.80
2023-02-15T00:19:14.244Z,1.80
2023-02-15T00:21:41.611Z,1.80
2023-02-15T00:24:10.236Z,1.70
2023-02-15T00:26:40.240Z,1.70
2023-02-15T00:29:08.639Z,1.70
2023-02-15T00:31:36.076Z,1.70
2023-02-15T00:36:55.778Z,1.70
2023-02-15T00:39:22.665Z,1.70
2023-02-15T00:41:49.550Z,1.60
2023-02-15T00:44:16.451Z,1.60
2023-02-15T00:46:43.673Z,1.60
2023-02-15T00:49:10.933Z,1.70
2023-02-15T00:51:37.718Z,1.60
2023-02-15T00:54:04.569Z,1.60
2023-02-15T00:56:31.316Z,1.60
2023-02-15T00:58:58.103Z,1.60
2023-02-15T01:01:25.111Z,1.60
2023-02-15T01:06:38.745Z,1.50
2023-02-15T01:11:32.165Z,1.50
2023-02-15T01:13:59.710Z,1.40
2023-02-15T01:19:15.936Z,1.50
2023-02-15T01:24:29.355Z,1.40
2023-02-15T01:26:56.111Z,1.40
2023-02-15T01:29:22.859Z,1.30
2023-02-15T01:31:49.750Z,1.30
2023-02-15T01:34:16.596Z,1.40
2023-02-15T01:36:43.326Z,1.40
2023-02-15T01:39:10.086Z,1.30
2023-02-15T01:41:37.027Z,1.30
2023-02-15T01:44:04.346Z,1.30
2023-02-15T01:46:39.454Z,1.30
2023-02-15T01:52:03.433Z,1.30
2023-02-15T01:54:34.748Z,1.30
2023-02-15T01:57:05.966Z,1.40
2023-02-15T01:59:34.685Z,1.40
2023-02-15T02:02:02.631Z,1.50
2023-02-15T02:04:45.188Z,1.40
2023-02-15T02:10:03.785Z,1.50
2023-02-15T02:15:18.452Z,1.40
2023-02-15T02:18:03.796Z,1.40
2023-02-15T02:20:45.517Z,1.40
2023-02-15T02:23:36.618Z,1.40
2023-02-15T02:26:21.844Z,1.40
2023-02-15T02:31:49.138Z,1.30
2023-02-15T02:34:32.933Z,1.20
2023-02-15T02:37:20.795Z,1.30
2023-02-15T02:40:09.446Z,1.20
2023-02-15T02:42:39.939Z,1.20
2023-02-15T02:45:25.157Z,1.30
2023-02-15T02:48:01.308Z,1.20
2023-02-15T02:53:17.715Z,1.20
2023-02-15T02:55:51.838Z,1.20
2023-02-15T02:58:34.462Z,1.20
2023-02-15T03:01:26.688Z,1.20
2023-02-15T03:07:05.782Z,1.20
2023-02-15T03:09:43.461Z,1.20
2023-02-15T03:12:21.009Z,1.10
2023-02-15T03:14:52.126Z,1.10
2023-02-15T03:17:22.864Z,1.20
2023-02-15T03:22:45.779Z,1.10
2023-02-15T03:25:24.540Z,1.10
2023-02-15T03:28:07.294Z,1.10
2023-02-15T03:30:37.584Z,1.10
2023-02-15T03:33:06.643Z,1.00
2023-02-15T03:38:50.156Z,1.00
2023-02-15T03:41:19.628Z,1.00
2023-02-15T03:43:50.785Z,1.00
2023-02-15T03:46:29.411Z,0.90
2023-02-15T03:49:02.970Z,1.00
2023-02-15T03:54:22.906Z,1.00
2023-02-15T03:59:36.625Z,0.90
2023-02-15T04:02:21.621Z,0.80
2023-02-15T04:04:49.351Z,0.90
2023-02-15T04:07:16.226Z,0.90
2023-02-15T04:09:42.965Z,0.90
2023-02-15T04:12:09.677Z,0.80
2023-02-15T04:14:36.568Z,0.80
2023-02-15T04:17:07.009Z,0.90
2023-02-15T04:19:33.944Z,0.80
2023-02-15T04:22:00.735Z,0.70
2023-02-15T04:24:27.482Z,0.80
2023-02-15T04:26:54.450Z,0.70
2023-02-15T04:29:23.140Z,0.80
2023-02-15T04:31:50.542Z,0.70
2023-02-15T04:34:17.620Z,0.60
2023-02-15T04:36:44.495Z,0.70
2023-02-15T04:39:14.768Z,0.70
2023-02-15T04:41:41.560Z,0.70
2023-02-15T04:44:08.660Z,0.70
2023-02-15T04:46:35.858Z,0.70
2023-02-15T04:49:03.075Z,0.70
2023-02-15T04:51:29.859Z,0.80
2023-02-15T04:53:56.649Z,0.70
2023-02-15T04:56:23.801Z,0.70
2023-02-15T04:58:50.556Z,0.70
2023-02-15T05:01:18.062Z,0.70
2023-02-15T05:03:44.860Z,0.70
2023-02-15T05:06:11.631Z,0.70
2023-02-15T05:08:38.374Z,0.70
2023-02-15T05:11:05.186Z,0.60
2023-02-15T05:13:31.964Z,0.70
2023-02-15T05:15:58.786Z,0.70
2023-02-15T05:18:25.604Z,0.60
2023-02-15T05:20:52.485Z,0.60
2023-02-15T05:23:19.241Z,0.60
2023-02-15T05:25:50.041Z,0.50
2023-02-15T05:28:16.766Z,0.60
2023-02-15T05:30:43.657Z,0.50
2023-02-15T05:33:10.535Z,0.50
2023-02-15T05:35:37.304Z,0.50
2023-02-15T05:40:52.787Z,0.50
2023-02-15T05:46:07.812Z,0.40
2023-02-15T05:51:21.353Z,0.40
2023-02-15T05:53:48.107Z,0.50
2023-02-15T05:56:14.895Z,0.50
2023-02-15T05:58:42.614Z,0.50
2023-02-15T06:03:41.703Z,0.50
2023-02-15T06:06:08.503Z,0.50
2023-02-15T06:11:23.428Z,0.50
2023-02-15T06:16:36.930Z,0.40
2023-02-15T06:19:04.181Z,0.50
2023-02-15T06:21:31.658Z,0.50
2023-02-15T06:23:58.412Z,0.40
2023-02-15T06:26:25.166Z,0.50
2023-02-15T06:28:51.936Z,0.50
2023-02-15T06:31:18.805Z,0.50
2023-02-15T06:33:45.680Z,0.40
2023-02-15T06:36:12.429Z,0.40
2023-02-15T06:38:39.472Z,0.40
2023-02-15T06:41:06.277Z,0.40
2023-02-15T06:43:33.120Z,0.40
2023-02-15T06:46:00.390Z,0.40
2023-02-15T06:48:27.614Z,0.40
2023-02-15T06:50:54.373Z,0.40
2023-02-15T06:53:21.160Z,0.40
2023-02-15T06:55:47.962Z,0.30
2023-02-15T07:00:41.385Z,0.30
2023-02-15T07:03:08.154Z,0.30
2023-02-15T07:08:22.406Z,0.30
2023-02-15T07:10:50.991Z,0.40
2023-02-15T07:13:17.842Z,0.40
2023-02-15T07:15:45.218Z,0.40
2023-02-15T07:18:12.074Z,0.40
2023-02-15T07:20:39.281Z,0.40
2023-02-15T07:23:06.200Z,0.50
2023-02-15T07:25:33.013Z,0.50
2023-02-15T07:28:01.290Z,0.50
2023-02-15T07:30:29.063Z,0.50
2023-02-15T07:32:59.308Z,0.50
2023-02-15T07:35:26.325Z,0.50
2023-02-15T07:37:53.135Z,0.50
2023-02-15T07:40:20.213Z,0.60
2023-02-15T07:42:46.987Z,0.60
2023-02-15T07:48:02.132Z,0.60
2023-02-15T07:53:15.726Z,0.60
2023-02-15T07:58:29.222Z,0.70
2023-02-15T08:00:56.819Z,0.80
2023-02-15T08:03:27.494Z,0.80
2023-02-15T08:05:58.608Z,0.80
2023-02-15T08:11:21.918Z,1.00
2023-02-15T08:13:50.747Z,1.00
2023-02-15T08:16:17.474Z,1.00
2023-02-15T08:18:44.461Z,0.90
2023-02-15T08:21:11.194Z,0.90
2023-02-15T08:23:37.937Z,1.00
2023-02-15T08:26:04.814Z,1.00
2023-02-15T08:31:19.364Z,1.00
2023-02-15T08:36:34.956Z,1.10
2023-02-15T08:41:51.294Z,1.00
2023-02-15T08:47:08.382Z,1.10
2023-02-15T08:52:21.798Z,1.20
2023-02-15T08:54:48.556Z,1.10
2023-02-15T08:57:15.393Z,1.10
2023-02-15T08:59:42.151Z,1.30
2023-02-15T09:02:11.050Z,1.30
2023-02-15T09:04:37.973Z,1.20
2023-02-15T09:07:04.714Z,1.30
2023-02-15T09:09:31.484Z,1.20
2023-02-15T09:11:59.649Z,1.20
2023-02-15T09:14:27.479Z,1.40
2023-02-15T09:16:55.027Z,1.30
2023-02-15T09:19:23.173Z,1.30
2023-02-15T09:21:50.195Z,1.20
2023-02-15T09:24:18.667Z,1.40
2023-02-15T09:26:48.136Z,1.40
2023-02-15T09:29:16.365Z,1.50
2023-02-15T09:31:45.875Z,1.60
2023-02-15T09:34:17.709Z,1.70
2023-02-15T09:36:45.271Z,1.90
2023-02-15T09:45:27.340Z,2.10
2023-02-15T09:48:32.748Z,2.20
2023-02-15T09:51:17.992Z,2.40
2023-02-15T09:53:47.801Z,2.40
2023-02-15T09:56:31.728Z,2.30
2023-02-15T09:59:15.634Z,2.50
2023-02-15T10:02:00.398Z,2.60
2023-02-15T10:04:39.114Z,2.80
2023-02-15T10:07:29.479Z,2.90
2023-02-15T10:10:30.174Z,2.90
2023-02-15T10:16:14.844Z,3.00
2023-02-15T10:18:54.489Z,3.10
2023-02-15T10:21:24.097Z,3.20
2023-02-15T10:24:15.743Z,3.20
2023-02-15T10:26:47.863Z,3.10
2023-02-15T10:29:37.117Z,3.40
2023-02-15T10:32:25.147Z,3.40
2023-02-15T10:35:21.053Z,3.30
2023-02-15T10:37:50.900Z,3.40
2023-02-15T10:40:53.066Z,3.30
2023-02-15T10:43:19.769Z,3.50
2023-02-15T10:45:56.610Z,3.40
2023-02-15T10:48:42.196Z,3.50
2023-02-15T10:51:29.056Z,3.50
2023-02-15T10:54:10.655Z,3.60
2023-02-15T10:56:56.668Z,3.70
2023-02-15T10:59:32.334Z,3.80
2023-02-15T11:02:10.950Z,3.90
2023-02-15T11:04:40.874Z,3.80
2023-02-15T11:10:07.032Z,4.10
2023-02-15T11:15:30.881Z,4.20
2023-02-15T11:18:02.782Z,4.20
2023-02-15T11:20:48.830Z,4.30
2023-02-15T11:23:17.362Z,4.40
2023-02-15T11:25:54.530Z,4.40
2023-02-15T11:31:27.745Z,4.60
2023-02-15T11:34:06.007Z,4.70
2023-02-15T11:36:41.222Z,4.70
2023-02-15T11:39:18.322Z,4.50
2023-02-15T11:41:51.443Z,4.50
2023-02-15T11:44:38.576Z,4.70
2023-02-15T11:47:11.466Z,4.50
2023-02-15T11:52:14.007Z,4.70
2023-02-15T11:54:44.483Z,4.70
2023-02-15T11:57:29.496Z,4.70
2023-02-15T12:00:06.948Z,4.70
2023-02-15T12:02:36.474Z,4.70
2023-02-15T12:05:10.254Z,4.50
2023-02-15T12:08:17.068Z,4.60
2023-02-15T12:11:06.745Z,4.50
2023-02-15T12:13:33.823Z,4.50
2023-02-15T12:19:00.327Z,4.50
2023-02-15T12:21:40.256Z,4.30
2023-02-15T12:24:24.088Z,4.10
2023-02-15T12:26:58.609Z,4.30
2023-02-15T12:29:30.401Z,4.40
2023-02-15T12:34:46.124Z,4.40
2023-02-15T12:37:26.379Z,4.50
2023-02-15T12:39:59.338Z,4.70
2023-02-15T12:45:33.853Z,5.10
2023-02-15T12:48:18.541Z,5.20
2023-02-15T12:50:57.509Z,5.10
2023-02-15T12:53:33.276Z,4.90
2023-02-15T12:56:02.299Z,4.90
2023-02-15T12:58:31.034Z,5.00
2023-02-15T13:01:18.670Z,5.20
2023-02-15T13:03:56.388Z,5.30
2023-02-15T13:06:23.773Z,5.20
2023-02-15T13:08:53.412Z,5.50
2023-02-15T13:11:31.289Z,5.60
2023-02-15T13:14:01.823Z,5.50
2023-02-15T13:16:32.683Z,5.60
2023-02-15T13:19:10.388Z,5.20
2023-02-15T13:21:41.515Z,5.50
2023-02-15T13:24:28.631Z,5.80
2023-02-15T13:27:13.234Z,6.20
2023-02-15T13:29:43.736Z,6.50
2023-02-15T13:32:34.420Z,6.70
2023-02-15T13:35:06.351Z,6.60
2023-02-15T13:38:03.838Z,6.60
2023-02-15T13:41:00.851Z,6.70
2023-02-15T13:43:39.700Z,6.70
2023-02-15T13:46:14.459Z,6.70
2023-02-15T13:49:06.604Z,6.70
2023-02-15T13:51:50.514Z,6.50
2023-02-15T13:54:25.925Z,6.40
2023-02-15T14:04:21.210Z,5.80
2023-02-15T14:07:25.280Z,5.80
2023-02-15T14:13:39.205Z,6.00
2023-02-15T14:16:35.090Z,5.90
2023-02-15T14:19:20.236Z,6.20
2023-02-15T14:28:03.386Z,6.10
2023-02-15T14:30:37.709Z,6.20
2023-02-15T14:33:15.289Z,6.10
2023-02-15T14:35:43.939Z,6.00
2023-02-15T14:38:10.770Z,6.00
2023-02-15T14:40:56.141Z,5.80
2023-02-15T14:43:46.984Z,5.80
2023-02-15T14:49:28.680Z,5.90
2023-02-15T14:54:23.526Z,6.10
2023-02-15T14:57:02.046Z,6.00
2023-02-15T14:59:44.008Z,5.70
2023-02-15T15:02:33.764Z,5.50
2023-02-15T15:05:30.617Z,5.60
2023-02-15T15:08:00.679Z,5.60
2023-02-15T15:10:27.434Z,5.60
2023-02-15T15:12:58.593Z,5.40
2023-02-15T15:15:28.177Z,5.40
2023-02-15T15:18:08.117Z,5.40
2023-02-15T15:20:52.112Z,5.40
2023-02-15T15:23:19.040Z,5.40
2023-02-15T15:26:04.823Z,5.30
2023-02-15T15:28:34.604Z,5.20
2023-02-15T15:31:07.043Z,5.20
2023-02-15T15:33:59.398Z,5.00
2023-02-15T15:36:47.775Z,4.90
2023-02-15T15:39:22.955Z,4.60
2023-02-15T15:41:54.657Z,4.50
2023-02-15T15:44:41.663Z,4.50
2023-02-15T15:47:41.546Z,4.40
2023-02-15T15:52:54.370Z,4.30
2023-02-15T15:55:24.356Z,4.20
2023-02-15T15:57:57.923Z,4.30
2023-02-15T16:00:39.761Z,4.10
2023-02-15T16:03:06.633Z,4.10
2023-02-15T16:05:39.445Z,3.80
2023-02-15T16:08:07.134Z,3.80
2023-02-15T16:10:35.744Z,3.60
2023-02-15T16:13:03.149Z,3.70
2023-02-15T16:15:47.755Z,3.70
2023-02-15T16:18:17.635Z,3.70
2023-02-15T16:21:01.872Z,3.60
2023-02-15T16:23:37.561Z,3.50
2023-02-15T16:26:26.718Z,3.40
2023-02-15T16:28:55.000Z,3.40
2023-02-15T16:31:23.536Z,3.50
2023-02-15T16:33:54.966Z,3.50
2023-02-15T16:36:28.863Z,3.50
2023-02-15T16:41:28.215Z,3.50
2023-02-15T16:44:01.213Z,3.40
2023-02-15T16:46:33.625Z,3.50
2023-02-15T16:49:05.011Z,3.50
2023-02-15T16:54:08.661Z,3.40
2023-02-15T16:56:35.625Z,3.30
2023-02-15T17:01:49.706Z,3.40
2023-02-15T17:07:19.449Z,3.30
2023-02-15T17:09:54.368Z,3.20
2023-02-15T17:15:36.216Z,3.10
2023-02-15T17:18:23.743Z,3.00
2023-02-15T17:20:54.751Z,3.10
2023-02-15T17:23:26.673Z,3.00
2023-02-15T17:25:54.057Z,3.10
2023-02-15T17:28:27.138Z,3.00
2023-02-15T17:30:55.923Z,3.10
2023-02-15T17:33:34.778Z,3.00
2023-02-15T17:36:15.329Z,2.90
2023-02-15T17:39:01.864Z,2.90
2023-02-15T17:41:34.224Z,2.80
2023-02-15T17:44:02.355Z,2.70
2023-02-15T17:46:34.002Z,2.60
2023-02-15T17:49:01.166Z,2.60
2023-02-15T17:51:28.343Z,2.50
2023-02-15T17:53:55.264Z,2.60
2023-02-15T17:56:22.191Z,2.60
2023-02-15T17:58:49.033Z,2.50
2023-02-15T18:01:21.935Z,2.30
2023-02-15T18:03:51.814Z,2.30
2023-02-15T18:06:18.817Z,2.30
2023-02-15T18:08:45.580Z,2.30
2023-02-15T18:11:13.170Z,2.10
2023-02-15T18:13:40.056Z,2.20
2023-02-15T18:19:14.737Z,2.10
2023-02-15T18:21:41.596Z,1.90
2023-02-15T18:24:18.715Z,2.00
2023-02-15T18:26:46.013Z,2.00
2023-02-15T18:29:13.003Z,2.00
2023-02-15T18:31:40.836Z,2.00
2023-02-15T18:34:14.068Z,1.90
2023-02-15T18:36:44.999Z,1.80
2023-02-15T18:39:31.990Z,1.90
2023-02-15T18:41:59.003Z,1.90
2023-02-15T18:44:26.692Z,1.90
2023-02-15T18:46:53.549Z,1.90
2023-02-15T18:49:20.395Z,1.90
2023-02-15T18:51:47.282Z,1.80
2023-02-15T18:54:21.103Z,1.80
2023-02-15T18:56:56.281Z,1.80
2023-02-15T18:59:25.200Z,1.80
2023-02-15T19:01:52.514Z,1.90
2023-02-15T19:04:19.375Z,1.80
2023-02-15T19:06:49.810Z,1.80
2023-02-15T19:09:20.241Z,1.90
2023-02-15T19:11:58.668Z,1.80
2023-02-15T19:17:18.607Z,1.80
2023-02-15T19:22:33.754Z,1.90
2023-02-15T19:27:53.220Z,1.80
2023-02-15T19:30:29.611Z,1.80
2023-02-15T19:32:58.025Z,1.90
2023-02-15T19:35:27.541Z,1.90
2023-02-15T19:37:57.201Z,2.00
2023-02-15T19:40:27.625Z,2.00
2023-02-15T19:42:55.580Z,2.00
2023-02-15T19:45:29.668Z,2.00
2023-02-15T19:47:56.826Z,2.00
2023-02-15T19:53:24.008Z,2.00
2023-02-15T19:55:51.721Z,1.90
2023-02-15T19:58:19.390Z,1.90
2023-02-15T20:00:48.373Z,1.90
2023-02-15T20:03:15.806Z,1.90
2023-02-15T20:05:43.816Z,1.90
2023-02-15T20:08:19.368Z,1.80
2023-02-15T20:10:46.216Z,1.80
2023-02-15T20:13:18.138Z,1.80
2023-02-15T20:15:45.895Z,1.80
2023-02-15T20:18:12.889Z,1.70
2023-02-15T20:20:51.618Z,1.80
2023-02-15T20:23:30.942Z,1.70
2023-02-15T20:26:00.233Z,1.70
2023-02-15T20:31:18.961Z,1.70
2023-02-15T20:36:32.594Z,1.70
2023-02-15T20:41:29.587Z,1.60
2023-02-15T20:43:56.358Z,1.60
2023-02-15T20:46:23.159Z,1.60
2023-02-15T20:48:49.932Z,1.50
2023-02-15T20:51:21.721Z,1.50
2023-02-15T20:53:48.778Z,1.60
2023-02-15T20:56:20.433Z,1.50
2023-02-15T20:58:47.829Z,1.50
2023-02-15T21:03:41.589Z,1.50
2023-02-15T21:06:12.719Z,1.50
2023-02-15T21:11:26.424Z,1.50
2023-02-15T21:13:53.254Z,1.60
2023-02-15T21:16:20.109Z,1.50
2023-02-15T21:18:46.967Z,1.60
2023-02-15T21:21:21.857Z,1.60
2023-02-15T21:23:48.683Z,1.70
2023-02-15T21:26:19.652Z,1.60
2023-02-15T21:31:32.085Z,1.70
2023-02-15T21:33:58.902Z,1.60
2023-02-15T21:36:25.914Z,1.60
2023-02-15T21:38:53.003Z,1.60
2023-02-15T21:41:22.430Z,1.50
2023-02-15T21:43:49.239Z,1.60
2023-02-15T21:46:18.977Z,1.40
2023-02-15T21:48:45.849Z,1.50
2023-02-15T21:51:12.724Z,1.40
2023-02-15T21:53:41.956Z,1.40
2023-02-15T21:59:14.672Z,1.30
2023-02-15T22:01:44.650Z,1.30
2023-02-15T22:04:29.298Z,1.40
2023-02-15T22:06:56.739Z,1.40
2023-02-15T22:09:25.972Z,1.40
2023-02-15T22:11:54.386Z,1.40
2023-02-15T22:14:40.601Z,1.50
2023-02-15T22:17:14.871Z,1.40
2023-02-15T22:19:42.172Z,1.40
2023-02-15T22:22:08.944Z,1.30
2023-02-15T22:24:35.958Z,1.30
2023-02-15T22:27:02.851Z,1.30
2023-02-15T22:29:29.665Z,1.20
2023-02-15T22:31:56.558Z,1.20
2023-02-15T22:37:12.501Z,1.30
2023-02-15T22:42:16.056Z,1.20
2023-02-15T22:44:43.465Z,1.20
2023-02-15T22:47:27.167Z,1.10
2023-02-15T22:49:54.718Z,1.10
2023-02-15T22:55:09.636Z,1.10
2023-02-15T23:00:28.547Z,1.00
2023-02-15T23:02:56.598Z,1.00
2023-02-15T23:05:27.007Z,0.90
2023-02-15T23:07:55.073Z,0.90
2023-02-15T23:10:24.933Z,0.90
2023-02-15T23:15:49.444Z,0.90
2023-02-15T23:18:40.556Z,0.80
2023-02-15T23:21:20.108Z,0.80
2023-02-15T23:26:41.676Z,0.70
2023-02-15T23:29:14.657Z,0.70
2023-02-15T23:31:45.404Z,0.60
2023-02-15T23:34:43.061Z,0.60
2023-02-15T23:37:15.119Z,0.50
2023-02-15T23:39:42.888Z,0.50
2023-02-15T23:42:21.560Z,0.50
2023-02-15T23:44:50.055Z,0.50
2023-02-15T23:47:29.785Z,0.50
2023-02-15T23:49:56.925Z,0.50
2023-02-15T23:55:13.690Z,0.50
